createdAt,value
2019-05-05T00:01:55.555Z,94490.19
2019-05-05T00:04:26.339Z,94481.13
2019-05-05T00:06:55.902Z,94490.74
2019-05-05T00:09:25.440Z,94498.23
2019-05-05T00:12:11.406Z,94501.58
2019-05-05T00:14:58.275Z,94494.47
2019-05-05T00:17:29.418Z,94492.78
2019-05-05T00:19:59.038Z,94500.67
2019-05-05T00:22:28.595Z,94499.84
2019-05-05T00:24:58.086Z,94501.30
2019-05-05T00:27:27.589Z,94505.98
2019-05-05T00:29:57.069Z,94510.09
2019-05-05T00:32:26.631Z,94507.97
2019-05-05T00:34:56.163Z,94512.96
2019-05-05T00:37:25.824Z,94511.59
2019-05-05T00:39:55.377Z,94513.03
2019-05-05T00:42:24.871Z,94514.37
2019-05-05T00:44:54.935Z,94506.13
2019-05-05T00:47:26.139Z,94503.92
2019-05-05T00:49:56.278Z,94498.47
2019-05-05T00:52:25.903Z,94502.15
2019-05-05T00:54:55.699Z,94498.30
2019-05-05T00:57:25.239Z,94504.41
2019-05-05T00:59:54.729Z,94513.43
2019-05-05T01:02:28.532Z,94513.13
2019-05-05T01:05:36.379Z,94516.22
2019-05-05T01:08:08.384Z,94472.56
2019-05-05T01:10:37.863Z,94525.29
2019-05-05T01:13:07.506Z,94530.31
2019-05-05T01:15:37.270Z,94535.66
2019-05-05T01:18:26.115Z,94533.38
2019-05-05T01:21:09.079Z,94536.25
2019-05-05T01:23:38.569Z,94476.84
2019-05-05T01:26:08.622Z,94533.73
2019-05-05T01:28:38.225Z,94536.87
2019-05-05T01:31:09.434Z,94541.39
2019-05-05T01:33:44.927Z,94539.73
2019-05-05T01:36:14.978Z,94538.99
2019-05-05T01:39:01.140Z,94542.73
2019-05-05T01:41:34.949Z,94542.92
2019-05-05T01:44:04.943Z,94543.08
2019-05-05T01:46:35.365Z,94543.90
2019-05-05T01:49:05.456Z,94547.71
2019-05-05T01:51:35.572Z,94550.15
2019-05-05T01:54:05.475Z,94548.19
2019-05-05T01:56:35.523Z,94542.95
2019-05-05T01:59:05.352Z,94543.70
2019-05-05T02:01:35.294Z,94535.60
2019-05-05T02:04:05.704Z,94535.33
2019-05-05T02:06:35.314Z,94532.78
2019-05-05T02:09:06.483Z,94537.58
2019-05-05T02:11:36.245Z,94535.58
2019-05-05T02:14:05.765Z,94534.08
2019-05-05T02:16:35.261Z,94532.04
2019-05-05T02:19:05.177Z,94536.39
2019-05-05T02:21:35.387Z,94538.39
2019-05-05T02:24:05.364Z,94541.58
2019-05-05T02:26:35.742Z,94546.56
2019-05-05T02:29:07.142Z,94544.33
2019-05-05T02:31:55.232Z,94537.34
2019-05-05T02:34:26.285Z,94542.13
2019-05-05T02:36:56.592Z,94537.09
2019-05-05T02:39:26.411Z,94539.96
2019-05-05T02:41:57.159Z,94542.48
2019-05-05T02:44:28.971Z,94545.89
2019-05-05T02:47:15.490Z,94542.08
2019-05-05T02:49:45.577Z,94546.91
2019-05-05T02:52:17.703Z,94546.09
2019-05-05T02:54:47.368Z,94557.48
2019-05-05T02:57:17.000Z,94554.89
2019-05-05T02:59:51.115Z,94558.63
2019-05-05T03:02:23.680Z,94560.48
2019-05-05T03:04:53.737Z,94570.50
2019-05-05T03:07:54.449Z,94569.67
2019-05-05T03:10:25.374Z,94575.95
2019-05-05T03:12:55.706Z,94572.63
2019-05-05T03:15:52.269Z,94573.56
2019-05-05T03:18:24.649Z,94576.83
2019-05-05T03:21:02.322Z,94573.95
2019-05-05T03:23:26.055Z,94579.09
2019-05-05T03:25:55.743Z,94576.15
2019-05-05T03:28:26.937Z,94577.99
2019-05-05T03:30:56.584Z,94579.30
2019-05-05T03:33:27.395Z,94578.87
2019-05-05T03:35:56.875Z,94584.32
2019-05-05T03:38:57.280Z,94578.87
2019-05-05T03:41:39.469Z,94578.60
2019-05-05T03:44:45.071Z,94577.58
2019-05-05T03:47:14.959Z,94438.88
2019-05-05T03:49:44.695Z,94582.50
2019-05-05T03:52:14.632Z,94587.73
2019-05-05T03:54:45.683Z,94587.27
2019-05-05T03:57:15.929Z,94583.19
2019-05-05T03:59:45.642Z,94584.48
2019-05-05T04:02:16.819Z,94588.17
2019-05-05T04:04:48.050Z,94586.52
2019-05-05T04:07:17.611Z,94578.67
2019-05-05T04:09:48.492Z,94584.59
2019-05-05T04:12:18.097Z,94581.14
2019-05-05T04:14:47.579Z,94585.14
2019-05-05T04:17:34.571Z,94587.34
2019-05-05T04:20:18.048Z,94588.77
2019-05-05T04:22:47.542Z,94595.17
2019-05-05T04:25:17.041Z,94589.66
2019-05-05T04:27:46.531Z,94593.54
2019-05-05T04:30:16.021Z,94607.91
2019-05-05T04:32:45.546Z,94604.16
2019-05-05T04:35:15.178Z,94613.36
2019-05-05T04:37:44.666Z,94615.34
2019-05-05T04:40:14.957Z,94616.27
2019-05-05T04:42:44.475Z,94624.55
2019-05-05T04:45:14.941Z,94623.52
2019-05-05T04:47:53.783Z,94637.09
2019-05-05T04:50:44.073Z,94631.14
2019-05-05T04:56:34.351Z,94647.65
2019-05-05T04:59:04.188Z,94639.50
2019-05-05T05:01:34.273Z,94642.35
2019-05-05T05:04:17.573Z,94644.65
2019-05-05T05:06:48.695Z,94648.27
2019-05-05T05:09:18.179Z,94646.77
2019-05-05T05:11:47.671Z,94648.41
2019-05-05T05:14:17.199Z,94646.52
2019-05-05T05:16:48.481Z,94646.67
2019-05-05T05:19:17.978Z,94644.28
2019-05-05T05:21:58.403Z,94644.42
2019-05-05T05:24:18.698Z,94642.23
2019-05-05T05:26:48.234Z,94645.74
2019-05-05T05:29:17.714Z,94641.23
2019-05-05T05:31:47.201Z,94642.98
2019-05-05T05:34:16.704Z,94638.88
2019-05-05T05:36:46.175Z,94642.13
2019-05-05T05:39:33.568Z,94648.81
2019-05-05T05:42:04.544Z,94654.85
2019-05-05T05:44:44.438Z,94660.69
2019-05-05T05:47:24.606Z,94655.68
2019-05-05T05:49:55.708Z,94652.97
2019-05-05T05:52:25.243Z,94656.63
2019-05-05T05:54:54.700Z,94665.30
2019-05-05T05:57:43.972Z,94663.22
2019-05-05T06:00:14.822Z,94664.80
2019-05-05T06:02:44.296Z,94676.64
2019-05-05T06:05:14.729Z,94679.13
2019-05-05T06:07:44.450Z,94681.66
2019-05-05T06:10:22.310Z,94685.08
2019-05-05T06:12:45.768Z,94689.33
2019-05-05T06:15:15.561Z,94692.71
2019-05-05T06:17:45.078Z,94692.33
2019-05-05T06:20:15.012Z,94695.38
2019-05-05T06:22:44.782Z,94703.05
2019-05-05T06:25:15.975Z,94702.40
2019-05-05T06:27:45.970Z,94705.87
2019-05-05T06:30:15.765Z,94704.30
2019-05-05T06:32:45.777Z,94711.02
2019-05-05T06:35:34.693Z,94718.52
2019-05-05T06:38:04.818Z,94723.80
2019-05-05T06:40:38.684Z,94727.26
2019-05-05T06:43:18.653Z,94722.54
2019-05-05T06:46:01.686Z,94723.74
2019-05-05T06:48:50.511Z,94732.27
2019-05-05T06:51:20.045Z,94724.80
2019-05-05T06:53:49.661Z,94725.96
2019-05-05T06:56:19.148Z,94729.24
2019-05-05T06:58:48.645Z,94730.06
2019-05-05T07:01:18.143Z,94736.75
2019-05-05T07:03:47.643Z,94736.82
2019-05-05T07:06:18.412Z,94728.87
2019-05-05T07:08:47.897Z,94728.72
2019-05-05T07:11:17.435Z,94737.27
2019-05-05T07:13:46.905Z,94740.79
2019-05-05T07:16:16.475Z,94747.73
2019-05-05T07:18:47.064Z,94741.33
2019-05-05T07:21:16.615Z,94750.61
2019-05-05T07:23:46.113Z,94752.22
2019-05-05T07:26:15.637Z,94753.53
2019-05-05T07:28:45.982Z,94758.92
2019-05-05T07:31:15.485Z,94760.13
2019-05-05T07:33:45.010Z,94756.98
2019-05-05T07:36:14.639Z,94761.58
2019-05-05T07:38:45.887Z,94763.36
2019-05-05T07:41:15.498Z,94769.92
2019-05-05T07:43:44.968Z,94771.15
2019-05-05T07:46:14.470Z,94770.88
2019-05-05T07:49:03.976Z,94767.52
2019-05-05T07:51:47.636Z,94621.40
2019-05-05T07:54:17.188Z,94650.98
2019-05-05T07:56:46.702Z,94769.03
2019-05-05T07:59:16.194Z,94764.82
2019-05-05T08:01:46.780Z,94764.96
2019-05-05T08:04:16.409Z,94771.02
2019-05-05T08:06:45.911Z,94775.33
2019-05-05T08:09:15.914Z,94776.17
2019-05-05T08:11:45.387Z,94767.48
2019-05-05T08:14:14.885Z,94776.03
2019-05-05T08:17:03.748Z,94776.36
2019-05-05T08:19:37.851Z,94774.51
2019-05-05T08:22:07.356Z,94776.30
2019-05-05T08:24:54.514Z,94784.47
2019-05-05T08:27:29.972Z,94775.62
2019-05-05T08:30:04.603Z,94774.22
2019-05-05T08:32:39.422Z,94768.06
2019-05-05T08:35:09.089Z,94768.78
2019-05-05T08:37:38.590Z,94769.25
2019-05-05T08:40:08.404Z,94773.88
2019-05-05T08:42:37.890Z,94775.77
2019-05-05T08:45:07.899Z,94772.59
2019-05-05T08:47:37.397Z,94773.14
2019-05-05T08:50:09.762Z,94774.25
2019-05-05T08:52:39.270Z,94771.13
2019-05-05T08:55:08.993Z,94771.48
2019-05-05T08:57:38.465Z,94774.22
2019-05-05T09:00:11.248Z,94768.78
2019-05-05T09:02:41.062Z,94765.85
2019-05-05T09:05:11.195Z,94767.52
2019-05-05T09:07:40.670Z,94769.70
2019-05-05T09:10:10.773Z,94774.18
2019-05-05T09:12:40.248Z,94766.33
2019-05-05T09:15:10.399Z,94766.41
2019-05-05T09:17:39.873Z,94771.69
2019-05-05T09:20:09.499Z,94773.23
2019-05-05T09:22:38.986Z,94769.52
2019-05-05T09:25:19.539Z,94769.83
2019-05-05T09:27:50.728Z,94764.52
2019-05-05T09:30:37.188Z,94771.69
2019-05-05T09:33:06.749Z,94766.97
2019-05-05T09:35:36.297Z,94772.89
2019-05-05T09:38:05.888Z,94767.29
2019-05-05T09:40:39.478Z,94767.13
2019-05-05T09:43:10.481Z,94763.91
2019-05-05T09:45:40.298Z,94769.70
2019-05-05T09:48:09.937Z,94770.92
2019-05-05T09:50:39.464Z,94768.16
2019-05-05T09:53:08.947Z,94769.88
2019-05-05T09:55:39.038Z,94771.45
2019-05-05T09:58:08.508Z,94772.73
2019-05-05T10:00:39.637Z,94768.05
2019-05-05T10:03:09.123Z,94768.92
2019-05-05T10:05:38.652Z,94772.55
2019-05-05T10:08:08.143Z,94775.36
2019-05-05T10:10:37.621Z,94775.14
2019-05-05T10:13:07.180Z,94773.56
2019-05-05T10:15:36.687Z,94778.66
2019-05-05T10:18:06.191Z,94776.33
2019-05-05T10:20:35.756Z,94775.00
2019-05-05T10:23:05.229Z,94778.47
2019-05-05T10:25:39.336Z,94773.26
2019-05-05T10:28:08.828Z,94776.44
2019-05-05T10:30:38.309Z,94776.05
2019-05-05T10:33:07.870Z,94774.21
2019-05-05T10:35:37.621Z,94771.42
2019-05-05T10:38:07.190Z,94775.28
2019-05-05T10:40:36.718Z,94775.53
2019-05-05T10:43:06.257Z,94769.25
2019-05-05T10:45:35.884Z,94774.72
2019-05-05T10:48:05.977Z,94765.25
2019-05-05T10:50:35.637Z,94766.54
2019-05-05T10:53:05.117Z,94768.20
2019-05-05T10:55:34.967Z,94768.49
2019-05-05T10:58:04.510Z,94763.42
2019-05-05T11:00:49.485Z,94772.09
2019-05-05T11:03:19.641Z,94769.17
2019-05-05T11:05:49.156Z,94774.61
2019-05-05T11:08:18.809Z,94768.73
2019-05-05T11:10:48.314Z,94771.17
2019-05-05T11:13:17.883Z,94770.75
2019-05-05T11:15:47.551Z,94774.25
2019-05-05T11:18:17.032Z,94778.51
2019-05-05T11:20:46.614Z,94775.70
2019-05-05T11:23:16.117Z,94780.94
2019-05-05T11:25:45.686Z,94782.31
2019-05-05T11:28:15.270Z,94773.80
2019-05-05T11:30:46.826Z,94780.42
2019-05-05T11:33:34.537Z,94777.88
2019-05-05T11:36:08.999Z,94775.06
2019-05-05T11:38:41.260Z,94769.50
2019-05-05T11:41:09.790Z,94773.59
2019-05-05T11:43:39.537Z,94771.04
2019-05-05T11:46:09.033Z,94772.17
2019-05-05T11:48:38.524Z,94766.86
2019-05-05T11:51:08.015Z,94768.59
2019-05-05T11:53:37.510Z,94765.90
2019-05-05T11:56:07.819Z,94767.30
2019-05-05T11:58:37.315Z,94772.03
2019-05-05T12:01:06.798Z,94775.13
2019-05-05T12:03:37.876Z,94772.52
2019-05-05T12:06:07.507Z,94776.24
2019-05-05T12:08:37.012Z,94775.53
2019-05-05T12:11:06.836Z,94780.65
2019-05-05T12:13:36.325Z,94785.89
2019-05-05T12:16:06.679Z,94789.94
2019-05-05T12:18:36.298Z,94783.41
2019-05-05T12:21:05.886Z,94793.20
2019-05-05T12:23:35.372Z,94784.20
2019-05-05T12:26:04.803Z,94786.83
2019-05-05T12:28:35.891Z,94793.34
2019-05-05T12:31:15.603Z,94788.33
2019-05-05T12:33:45.094Z,94798.51
2019-05-05T12:36:15.173Z,94798.73
2019-05-05T12:38:44.650Z,94794.22
2019-05-05T12:41:14.784Z,94797.75
2019-05-05T12:43:44.482Z,94800.31
2019-05-05T12:46:30.424Z,94797.28
2019-05-05T12:49:01.554Z,94800.47
2019-05-05T12:51:31.041Z,94798.64
2019-05-05T12:54:00.514Z,94795.02
2019-05-05T12:56:30.043Z,94798.09
2019-05-05T12:59:00.784Z,94796.86
2019-05-05T13:01:37.553Z,94789.11
2019-05-05T13:04:07.018Z,94796.56
2019-05-05T13:06:36.532Z,94791.00
2019-05-05T13:09:07.921Z,94794.86
2019-05-05T13:11:37.561Z,94794.73
2019-05-05T13:14:07.051Z,94801.56
2019-05-05T13:16:36.533Z,94794.65
2019-05-05T13:19:07.684Z,94796.66
2019-05-05T13:21:39.357Z,94804.77
2019-05-05T13:24:19.181Z,94800.79
2019-05-05T13:26:54.120Z,94796.55
2019-05-05T13:29:24.616Z,94795.60
2019-05-05T13:32:14.177Z,94800.72
2019-05-05T13:35:18.198Z,94796.95
2019-05-05T13:37:47.682Z,94795.97
2019-05-05T13:40:48.177Z,94802.16
2019-05-05T13:46:50.818Z,94810.89
2019-05-05T13:49:24.613Z,94650.08
2019-05-05T13:51:54.186Z,94802.40
2019-05-05T13:54:24.239Z,94799.38
2019-05-05T13:56:53.804Z,94798.66
2019-05-05T13:59:25.508Z,94799.59
2019-05-05T14:01:54.584Z,94799.00
2019-05-05T14:04:24.269Z,94802.64
2019-05-05T14:07:13.105Z,94803.77
2019-05-05T14:09:44.173Z,94803.49
2019-05-05T14:12:14.675Z,94809.20
2019-05-05T14:14:44.235Z,94807.73
2019-05-05T14:17:14.701Z,94809.39
2019-05-05T14:19:44.626Z,94807.74
2019-05-05T14:22:14.076Z,94802.87
2019-05-05T14:24:45.208Z,94801.39
2019-05-05T14:27:14.672Z,94797.28
2019-05-05T14:29:51.524Z,94796.78
2019-05-05T14:32:23.991Z,94798.27
2019-05-05T14:35:01.134Z,94796.60
2019-05-05T14:37:34.028Z,94809.09
2019-05-05T14:40:05.027Z,94809.09
2019-05-05T14:42:34.571Z,94827.70
2019-05-05T14:45:06.089Z,94830.88
2019-05-05T14:47:54.922Z,94837.62
2019-05-05T14:50:24.425Z,94772.48
2019-05-05T14:52:53.944Z,94836.36
2019-05-05T14:55:25.458Z,94842.27
2019-05-05T14:57:54.639Z,94849.55
2019-05-05T15:00:26.023Z,94856.17
2019-05-05T15:02:55.634Z,94846.58
2019-05-05T15:05:44.277Z,94841.78
2019-05-05T15:08:16.537Z,94841.73
2019-05-05T15:10:48.182Z,94836.02
2019-05-05T15:13:18.412Z,94842.70
2019-05-05T15:15:47.961Z,94840.69
2019-05-05T15:18:17.473Z,94841.48
2019-05-05T15:20:47.483Z,94840.83
2019-05-05T15:23:18.214Z,94836.27
2019-05-05T15:25:47.696Z,94836.45
2019-05-05T15:28:36.544Z,94840.72
2019-05-05T15:31:06.044Z,94838.31
2019-05-05T15:33:35.514Z,94840.67
2019-05-05T15:36:05.034Z,94846.57
2019-05-05T15:38:34.915Z,94844.27
2019-05-05T15:41:04.813Z,94845.30
2019-05-05T15:43:34.346Z,94838.59
2019-05-05T15:46:04.491Z,94834.97
2019-05-05T15:48:34.195Z,94833.44
2019-05-05T15:51:04.205Z,94839.03
2019-05-05T15:53:33.846Z,94833.00
2019-05-05T15:56:04.490Z,94836.27
2019-05-05T15:58:34.357Z,94835.66
2019-05-05T16:01:04.005Z,94838.22
2019-05-05T16:03:46.454Z,94841.16
2019-05-05T16:06:15.938Z,94844.33
2019-05-05T16:09:25.639Z,94841.39
2019-05-05T16:12:14.539Z,94840.09
2019-05-05T16:14:58.398Z,94842.81
2019-05-05T16:17:47.300Z,94840.69
2019-05-05T16:20:18.482Z,94846.20
2019-05-05T16:22:58.502Z,94863.68
2019-05-05T16:25:28.049Z,94872.64
2019-05-05T16:27:57.581Z,94893.13
2019-05-05T16:30:27.081Z,94915.39
2019-05-05T16:32:56.549Z,94919.87
2019-05-05T16:35:26.076Z,94919.86
2019-05-05T16:37:55.601Z,94911.91
2019-05-05T16:40:25.891Z,94916.19
2019-05-05T16:42:55.436Z,94912.41
2019-05-05T16:45:44.719Z,94914.53
2019-05-05T16:48:14.458Z,94798.73
2019-05-05T16:53:53.920Z,94781.73
2019-05-05T16:56:24.580Z,94927.30
2019-05-05T16:58:54.055Z,94925.98
2019-05-05T17:01:23.549Z,94932.99
2019-05-05T17:03:54.217Z,94933.06
2019-05-05T17:06:24.421Z,94937.73
2019-05-05T17:08:54.856Z,94935.95
2019-05-05T17:11:24.629Z,94935.69
2019-05-05T17:13:55.840Z,94939.91
2019-05-05T17:16:35.807Z,94939.05
2019-05-05T17:22:09.074Z,94946.05
2019-05-05T17:24:38.978Z,94948.03
2019-05-05T17:27:08.425Z,94944.41
2019-05-05T17:29:37.974Z,94948.36
2019-05-05T17:32:26.796Z,94950.38
2019-05-05T17:34:56.502Z,94948.36
2019-05-05T17:37:45.317Z,94945.38
2019-05-05T17:40:16.687Z,94950.38
2019-05-05T17:43:27.683Z,94955.48
2019-05-05T17:45:57.404Z,94953.44
2019-05-05T17:48:32.704Z,94951.42
2019-05-05T17:51:06.229Z,94957.36
2019-05-05T17:53:38.168Z,94958.95
2019-05-05T17:56:09.330Z,94960.92
2019-05-05T18:01:46.884Z,94966.50
2019-05-05T18:04:16.456Z,94967.86
2019-05-05T18:06:47.587Z,94976.55
2019-05-05T18:09:21.229Z,94979.67
2019-05-05T18:12:08.035Z,94980.11
2019-05-05T18:18:00.277Z,94986.00
2019-05-05T18:21:02.217Z,94985.35
2019-05-05T18:23:31.697Z,94983.31
2019-05-05T18:26:01.228Z,94992.84
2019-05-05T18:28:30.786Z,95001.03
2019-05-05T18:31:01.441Z,95008.89
2019-05-05T18:33:31.025Z,95017.81
2019-05-05T18:36:00.503Z,95022.43
2019-05-05T18:38:30.004Z,95021.84
2019-05-05T18:41:01.131Z,95017.19
2019-05-05T18:43:35.226Z,95024.19
2019-05-05T18:46:05.610Z,95025.48
2019-05-05T18:48:35.110Z,95021.61
2019-05-05T18:51:04.644Z,95031.36
2019-05-05T18:53:34.357Z,95029.22
2019-05-05T18:56:03.942Z,95035.05
2019-05-05T18:58:34.380Z,95035.39
2019-05-05T19:01:21.412Z,95040.78
2019-05-05T19:04:04.066Z,95049.45
2019-05-05T19:06:54.564Z,95047.98
2019-05-05T19:09:24.946Z,95052.19
2019-05-05T19:11:54.758Z,95053.72
2019-05-05T19:14:24.448Z,95057.84
2019-05-05T19:16:55.666Z,95060.58
2019-05-05T19:19:27.315Z,95062.15
2019-05-05T19:21:58.330Z,95066.50
2019-05-05T19:24:47.185Z,95059.56
2019-05-05T19:27:29.217Z,95063.17
2019-05-05T19:29:58.718Z,95061.27
2019-05-05T19:32:28.223Z,95062.12
2019-05-05T19:34:58.023Z,95065.06
2019-05-05T19:37:27.647Z,95067.45
2019-05-05T19:39:57.143Z,95070.50
2019-05-05T19:42:46.366Z,95067.36
2019-05-05T19:45:17.310Z,95066.41
2019-05-05T19:47:46.783Z,95055.61
2019-05-05T19:50:54.663Z,95050.60
2019-05-05T19:53:25.023Z,95012.11
2019-05-05T19:56:13.828Z,95054.19
2019-05-05T19:59:04.392Z,95057.96
2019-05-05T20:01:46.367Z,95057.72
2019-05-05T20:04:15.879Z,95054.87
2019-05-05T20:06:45.369Z,95050.27
2019-05-05T20:09:14.870Z,95048.51
2019-05-05T20:12:04.144Z,95053.47
2019-05-05T20:14:47.503Z,94966.00
2019-05-05T20:17:24.326Z,95058.14
2019-05-05T20:19:54.734Z,95051.23
2019-05-05T20:22:24.228Z,95054.07
2019-05-05T20:24:53.709Z,95056.75
2019-05-05T20:27:42.530Z,95056.61
2019-05-05T20:30:14.307Z,95061.92
2019-05-05T20:33:24.269Z,95063.08
2019-05-05T20:35:56.584Z,95028.30
2019-05-05T20:38:36.444Z,95059.66
2019-05-05T20:41:14.173Z,95060.78
2019-05-05T20:43:44.825Z,95058.12
2019-05-05T20:46:14.534Z,95060.49
2019-05-05T20:48:44.869Z,95062.17
2019-05-05T20:51:14.488Z,95061.87
2019-05-05T20:54:04.773Z,95061.69
2019-05-05T20:56:54.097Z,95058.64
2019-05-05T20:59:30.527Z,95064.09
2019-05-05T21:01:56.367Z,95061.41
2019-05-05T21:04:25.844Z,95060.38
2019-05-05T21:06:55.334Z,95060.87
2019-05-05T21:09:24.977Z,95057.21
2019-05-05T21:11:54.872Z,95055.44
2019-05-05T21:14:31.980Z,95052.91
2019-05-05T21:16:55.703Z,95054.58
2019-05-05T21:19:25.774Z,95055.16
2019-05-05T21:21:56.908Z,95054.03
2019-05-05T21:24:26.443Z,95050.88
2019-05-05T21:27:04.210Z,95045.45
2019-05-05T21:29:41.400Z,95042.53
2019-05-05T21:32:05.068Z,95044.92
2019-05-05T21:34:34.625Z,95050.69
2019-05-05T21:37:24.891Z,95052.69
2019-05-05T21:39:55.387Z,95049.03
2019-05-05T21:42:24.874Z,95051.72
2019-05-05T21:44:54.417Z,95046.94
2019-05-05T21:47:24.136Z,95050.34
2019-05-05T21:49:54.165Z,95047.50
2019-05-05T21:52:40.609Z,95051.31
2019-05-05T21:55:24.435Z,95046.84
2019-05-05T21:58:34.529Z,95049.29
2019-05-05T22:01:11.163Z,95030.48
2019-05-05T22:03:40.644Z,95042.28
2019-05-05T22:06:10.208Z,95041.16
2019-05-05T22:08:39.708Z,95042.55
2019-05-05T22:11:09.215Z,95044.14
2019-05-05T22:13:38.702Z,95038.50
2019-05-05T22:16:46.548Z,95042.48
2019-05-05T22:19:17.702Z,95046.62
2019-05-05T22:21:48.839Z,95041.72
2019-05-05T22:24:37.673Z,95038.02
2019-05-05T22:27:07.232Z,95033.66
2019-05-05T22:29:36.729Z,95038.64
2019-05-05T22:32:06.463Z,95038.48
2019-05-05T22:34:35.920Z,95039.04
2019-05-05T22:37:09.219Z,95040.75
2019-05-05T22:39:36.669Z,95036.23
2019-05-05T22:42:06.196Z,95032.59
2019-05-05T22:44:35.708Z,95027.91
2019-05-05T22:47:05.264Z,95029.53
2019-05-05T22:49:34.775Z,95026.58
2019-05-05T22:52:04.280Z,95025.96
2019-05-05T22:54:33.793Z,95026.25
2019-05-05T22:57:04.628Z,95028.70
2019-05-05T22:59:34.281Z,95031.98
2019-05-05T23:02:04.045Z,95031.35
2019-05-05T23:04:37.867Z,95024.77
2019-05-05T23:07:17.510Z,95029.06
2019-05-05T23:09:47.012Z,95037.23
2019-05-05T23:12:16.520Z,95030.16
2019-05-05T23:14:46.014Z,95023.42
2019-05-05T23:17:29.145Z,95030.59
2019-05-05T23:20:09.011Z,95034.00
2019-05-05T23:22:40.154Z,95034.86
2019-05-05T23:25:14.528Z,95035.56
2019-05-05T23:27:47.185Z,95029.02
2019-05-05T23:30:19.756Z,95032.14
2019-05-05T23:32:49.593Z,95031.19
2019-05-05T23:35:19.258Z,95025.47
2019-05-05T23:37:48.818Z,95023.95
2019-05-05T23:40:24.698Z,95017.37
2019-05-05T23:42:54.456Z,95023.16
2019-05-05T23:45:44.837Z,95021.31
2019-05-05T23:48:34.917Z,95011.09
2019-05-05T23:51:18.342Z,95010.04
2019-05-05T23:53:47.835Z,95017.41
2019-05-05T23:56:17.531Z,95011.17
2019-05-05T23:58:47.018Z,95009.52
